CO14 weather

Reasoner Airport
Brighton, Colorado, United States

Public forecast

Using degrees Fahrenheit for public forecast. Weather courtesy of forecast.io.

METAR (pilot weather report)

Closest report is Denver International Airport, 6.9 nm (12.8 km) ESE. Retrieved 2019/04/21 05:53 UTC (41 minutes ago):

KDEN 210553Z 30009KT 10SM FEW120 BKN170 BKN220 16/M01 A2977 RMK AO2 SLP005 T01561011 10233 20156 58006

TAF (pilot weather forecast)

Closest forecast is Denver International Airport, 6.9 nm (12.8 km) ESE. Retrieved 2019/04/21 06:42 UTC (0 seconds ago):

TAF KDEN 210541Z 2106/2212 31010KT P6SM SCT110 BKN200 FM211100 24010KT P6SM SCT090 BKN150 FM211800 03012KT P6SM SCT070 BKN120 FM212000 03014G24KT P6SM BKN060 OVC100 TEMPO 2120/2123 -SHRA BKN050 FM212300 35018G28KT P6SM -SHRA SCT015 BKN035 PROB30 2123/2203 -TSRA BKN025CB FM220300 01014G22KT P6SM -SHRA BKN015 OVC025 FM220700 01012KT 5SM -SHRA BR BKN009 OVC018